Time;durP1;ratioP1;P1;durP2;ratioP2;P2;SDS_P1;SDS_P2;PMS_P1;PMS_P2;Temp;Humidity;BMP_temperature;BMP_pressure;BME280_temperature;BME280_humidity;BME280_pressure;Samples;Min_cycle;Max_cycle;Signal;HPM_P1;HPM_P2
2021/12/06 00:01:30;;;;;;;8.07;2.75;;;13.30;99.90;;;;;;5074973;28;20040;-59
2021/12/06 00:04:07;;;;;;;7.57;3.33;;;13.30;99.90;;;;;;5058811;28;20544;-59
2021/12/06 00:06:38;;;;;;;8.65;4.00;;;13.30;99.90;;;;;;5081747;28;20351;-69
2021/12/06 00:09:09;;;;;;;7.18;3.60;;;13.30;99.90;;;;;;5075783;28;20366;-60
2021/12/06 00:11:36;;;;;;;8.05;4.30;;;13.20;99.90;;;;;;5101932;27;20549;-59
2021/12/06 00:14:05;;;;;;;7.30;3.03;;;13.20;99.90;;;;;;5081617;28;20454;-60
2021/12/06 00:16:33;;;;;;;7.18;2.45;;;13.20;99.90;;;;;;5104863;28;20040;-60
2021/12/06 00:19:02;;;;;;;8.40;2.13;;;13.20;99.90;;;;;;5074396;28;20068;-60
2021/12/06 00:21:29;;;;;;;4.22;2.75;;;13.20;99.90;;;;;;5073740;28;20118;-61
2021/12/06 00:23:57;;;;;;;5.90;2.35;;;13.20;99.90;;;;;;5085401;28;20485;-59
2021/12/06 00:26:25;;;;;;;5.20;2.40;;;13.20;99.90;;;;;;5084398;28;20067;-59
2021/12/06 00:28:57;;;;;;;7.57;3.25;;;13.20;99.90;;;;;;5091989;28;20036;-59
2021/12/06 00:31:32;;;;;;;18.02;3.00;;;13.20;99.90;;;;;;5091846;28;20047;-61
2021/12/06 00:34:06;;;;;;;3.17;2.55;;;13.10;99.90;;;;;;5117403;27;20545;-59
2021/12/06 00:36:40;;;;;;;3.70;2.42;;;13.20;99.90;;;;;;5094503;28;20096;-60
2021/12/06 00:39:13;;;;;;;7.43;3.97;;;13.20;99.90;;;;;;5083811;28;20035;-60
2021/12/06 00:41:41;;;;;;;7.82;3.35;;;13.10;99.90;;;;;;5094289;28;20051;-60
2021/12/06 00:44:09;;;;;;;10.00;2.83;;;13.20;99.90;;;;;;5100680;28;20478;-60
2021/12/06 00:46:38;;;;;;;4.57;2.75;;;13.20;99.90;;;;;;5080337;28;20048;-60
2021/12/06 00:49:08;;;;;;;7.00;3.03;;;13.10;99.90;;;;;;5091189;28;20048;-60
2021/12/06 00:51:36;;;;;;;7.28;2.45;;;13.00;99.90;;;;;;5076514;28;20051;-60
2021/12/06 00:54:04;;;;;;;7.28;2.30;;;12.90;99.90;;;;;;5092402;28;20036;-60
2021/12/06 00:56:33;;;;;;;4.20;1.95;;;12.90;99.90;;;;;;5078296;28;20059;-60
2021/12/06 00:59:00;;;;;;;3.72;1.98;;;12.90;99.90;;;;;;5087941;28;20355;-60
2021/12/06 01:01:28;;;;;;;3.75;2.17;;;12.90;99.90;;;;;;5111977;28;20130;-60
2021/12/06 01:03:56;;;;;;;5.10;2.53;;;12.90;99.90;;;;;;5079125;28;20495;-60
2021/12/06 01:06:25;;;;;;;4.40;2.03;;;13.00;99.90;;;;;;5095306;28;20031;-60
2021/12/06 01:08:53;;;;;;;4.70;2.58;;;13.10;99.90;;;;;;5087107;28;20040;-60
2021/12/06 01:11:21;;;;;;;7.05;2.95;;;13.20;99.90;;;;;;5113750;28;20035;-59
2021/12/06 01:13:48;;;;;;;5.35;2.40;;;13.20;99.90;;;;;;5079097;28;20040;-60
2021/12/06 01:16:16;;;;;;;7.72;2.58;;;13.20;99.90;;;;;;5096037;28;20031;-60
2021/12/06 01:18:44;;;;;;;6.10;2.88;;;13.20;99.90;;;;;;5061601;28;20043;-59
2021/12/06 01:23:58;;;;;;;7.38;3.42;;;13.30;99.90;;;;;;5095701;28;20040;-61
2021/12/06 01:32:21;;;;;;;7.38;1.85;;;13.40;99.90;;;;;;5099722;28;20515;-60
2021/12/06 01:40:21;;;;;;;;;;;13.50;99.90;;;;;;5083069;28;20047;-60
2021/12/06 01:42:49;;;;;;;6.75;2.25;;;13.50;99.90;;;;;;5099320;28;19915;-60
2021/12/06 01:45:17;;;;;;;5.88;3.13;;;13.60;99.90;;;;;;5066395;28;20047;-59
2021/12/06 01:47:46;;;;;;;8.23;2.60;;;13.50;99.90;;;;;;5065435;28;20058;-60
2021/12/06 01:50:24;;;;;;;6.13;3.72;;;13.50;99.90;;;;;;5083508;28;20032;-60
2021/12/06 01:52:58;;;;;;;5.15;3.53;;;13.50;99.90;;;;;;5082587;28;20039;-60
2021/12/06 01:55:30;;;;;;;5.32;3.13;;;13.50;99.90;;;;;;5097982;28;20075;-60
2021/12/06 01:57:59;;;;;;;3.95;2.55;;;13.50;99.90;;;;;;5065708;28;20139;-60
2021/12/06 02:00:39;;;;;;;7.40;2.70;;;13.40;99.90;;;;;;5082380;28;20043;-60
2021/12/06 02:03:12;;;;;;;10.48;3.10;;;13.40;99.90;;;;;;5066893;28;20430;-60
2021/12/06 02:05:43;;;;;;;8.88;3.53;;;13.40;99.90;;;;;;5065610;28;20073;-60
2021/12/06 02:08:14;;;;;;;8.75;2.90;;;13.40;99.90;;;;;;5082747;28;20032;-60
2021/12/06 02:10:42;;;;;;;4.55;1.80;;;13.40;99.90;;;;;;5082206;28;20528;-60
2021/12/06 02:13:16;;;;;;;6.05;2.13;;;13.40;99.90;;;;;;5082239;28;20140;-60
2021/12/06 02:15:51;;;;;;;4.13;2.08;;;13.40;99.90;;;;;;5099087;28;20035;-59
2021/12/06 02:18:42;;;;;;;11.52;3.40;;;13.50;99.90;;;;;;5066649;28;20043;-59
2021/12/06 02:21:26;;;;;;;8.82;2.55;;;13.40;99.90;;;;;;5082313;28;20500;-60
2021/12/06 02:23:57;;;;;;;5.95;3.55;;;13.50;99.90;;;;;;5098722;28;20485;-60
2021/12/06 02:26:25;;;;;;;3.97;2.70;;;13.40;99.90;;;;;;5082064;28;20036;-60
2021/12/06 02:28:54;;;;;;;6.13;3.15;;;13.30;99.90;;;;;;5065665;28;20138;-60
2021/12/06 02:31:23;;;;;;;6.40;3.05;;;13.40;99.90;;;;;;5065598;28;20035;-59
2021/12/06 02:33:52;;;;;;;5.60;3.47;;;13.30;99.90;;;;;;5098535;28;20062;-59
2021/12/06 02:36:23;;;;;;;4.22;2.55;;;13.30;99.90;;;;;;5098719;28;20031;-60
2021/12/06 02:38:51;;;;;;;9.15;3.08;;;13.30;99.90;;;;;;5065240;28;20035;-59
2021/12/06 02:41:19;;;;;;;4.72;3.15;;;13.30;99.90;;;;;;5097718;28;20024;-60
2021/12/06 02:43:50;;;;;;;5.95;2.42;;;13.40;99.90;;;;;;5081649;28;20068;-59
2021/12/06 02:46:21;;;;;;;3.90;2.88;;;13.40;99.90;;;;;;5081566;28;20035;-60
2021/12/06 02:48:50;;;;;;;10.52;3.67;;;13.40;99.90;;;;;;5098610;28;20042;-59
2021/12/06 02:51:18;;;;;;;5.45;3.58;;;13.30;99.90;;;;;;5081477;28;20032;-60
2021/12/06 02:53:46;;;;;;;8.30;2.90;;;13.10;99.90;;;;;;5098402;28;20085;-60
2021/12/06 02:56:49;;;;;;;4.10;2.38;;;13.10;99.90;;;;;;5098091;28;20479;-60
2021/12/06 02:59:10;;;;;;;6.50;3.70;;;13.10;99.90;;;;;;5096296;28;20059;-63
2021/12/06 03:01:42;;;;;;;7.07;3.10;;;13.10;99.90;;;;;;5081563;28;20039;-59
2021/12/06 03:04:10;;;;;;;8.55;3.00;;;13.10;99.90;;;;;;5081000;28;20039;-60
2021/12/06 03:06:40;;;;;;;5.47;2.58;;;13.20;99.90;;;;;;5081282;28;20039;-59
2021/12/06 03:09:16;;;;;;;7.70;3.22;;;13.20;99.90;;;;;;5097846;28;20055;-61
2021/12/06 03:11:48;;;;;;;6.03;2.58;;;13.20;99.90;;;;;;5116323;28;20122;-60
2021/12/06 03:14:20;;;;;;;5.53;2.17;;;13.10;99.90;;;;;;5081176;28;20043;-60
2021/12/06 03:16:52;;;;;;;3.45;2.00;;;12.90;99.90;;;;;;5097767;28;20067;-60
2021/12/06 03:19:21;;;;;;;3.67;2.15;;;12.70;99.90;;;;;;5064761;28;20054;-59
2021/12/06 03:21:49;;;;;;;3.40;1.90;;;12.70;99.90;;;;;;5064874;28;20043;-60
2021/12/06 03:24:18;;;;;;;15.95;3.53;;;12.70;99.90;;;;;;5097739;28;20142;-59
2021/12/06 03:26:46;;;;;;;7.45;2.13;;;12.60;99.90;;;;;;5097730;28;20042;-59
2021/12/06 03:29:14;;;;;;;5.13;2.38;;;12.70;99.90;;;;;;5080831;28;20036;-60
2021/12/06 03:31:42;;;;;;;5.40;2.60;;;12.80;99.90;;;;;;5097578;28;20031;-59
2021/12/06 03:34:11;;;;;;;3.08;1.67;;;12.60;99.90;;;;;;5080838;28;20130;-60
2021/12/06 03:36:40;;;;;;;3.38;1.60;;;12.60;99.90;;;;;;5080471;28;20040;-59
2021/12/06 03:39:20;;;;;;;6.65;1.92;;;12.60;99.90;;;;;;5080846;28;20043;-60
2021/12/06 03:41:54;;;;;;;2.35;1.58;;;12.60;99.90;;;;;;5079880;28;20382;-60
2021/12/06 03:44:24;;;;;;;5.50;2.10;;;12.70;99.90;;;;;;5115102;28;20040;-60
2021/12/06 03:47:00;;;;;;;3.28;1.60;;;12.70;99.90;;;;;;5080793;28;20096;-60
2021/12/06 03:49:29;;;;;;;4.57;1.60;;;12.80;99.90;;;;;;5080586;28;20343;-60
2021/12/06 03:51:56;;;;;;;3.42;2.20;;;12.90;99.90;;;;;;5080376;28;20118;-60
2021/12/06 03:54:27;;;;;;;6.97;2.55;;;13.00;99.90;;;;;;5079851;28;20047;-60
2021/12/06 03:56:57;;;;;;;5.38;1.88;;;13.00;99.90;;;;;;5096908;28;20035;-59
2021/12/06 03:59:26;;;;;;;7.72;2.33;;;13.10;99.90;;;;;;5080187;28;20070;-60
2021/12/06 04:01:54;;;;;;;5.95;1.95;;;13.10;99.90;;;;;;5063656;28;20108;-60
2021/12/06 04:04:25;;;;;;;3.33;2.28;;;13.10;99.90;;;;;;5063492;28;20476;-60
2021/12/06 04:06:54;;;;;;;3.45;1.90;;;13.10;99.90;;;;;;5063817;28;20039;-59
2021/12/06 04:09:24;;;;;;;3.40;2.22;;;13.10;99.90;;;;;;5063038;28;20070;-60
2021/12/06 04:11:52;;;;;;;4.05;1.95;;;13.10;99.90;;;;;;5080073;28;20059;-60
2021/12/06 04:14:20;;;;;;;6.80;1.88;;;13.10;99.90;;;;;;5096650;28;20067;-59
2021/12/06 04:16:48;;;;;;;3.25;1.90;;;13.20;99.90;;;;;;5080051;28;20036;-60
2021/12/06 04:19:17;;;;;;;5.22;2.50;;;13.20;99.90;;;;;;5063045;28;20040;-60
2021/12/06 04:21:46;;;;;;;3.03;2.17;;;13.20;99.90;;;;;;5096598;28;20412;-60
2021/12/06 04:24:14;;;;;;;4.13;1.92;;;13.20;99.90;;;;;;5063035;28;20040;-60
2021/12/06 04:26:42;;;;;;;4.22;2.00;;;13.20;99.90;;;;;;5079859;28;20469;-60
2021/12/06 04:29:13;;;;;;;6.43;2.28;;;13.20;99.90;;;;;;5063604;28;20130;-60
2021/12/06 04:31:52;;;;;;;9.15;2.40;;;13.20;99.90;;;;;;5096701;28;20078;-60
2021/12/06 04:34:23;;;;;;;4.82;2.40;;;13.10;99.90;;;;;;5096491;28;20477;-59
2021/12/06 04:36:51;;;;;;;6.63;2.42;;;13.20;99.90;;;;;;5079662;28;20041;-59
2021/12/06 04:39:20;;;;;;;6.28;3.45;;;13.10;99.90;;;;;;5096238;28;20043;-59
2021/12/06 04:41:50;;;;;;;4.43;2.33;;;13.10;99.90;;;;;;5096245;28;20039;-62
2021/12/06 04:44:19;;;;;;;4.38;2.30;;;13.10;99.90;;;;;;5079382;28;20043;-59
2021/12/06 04:46:47;;;;;;;5.32;2.05;;;13.10;99.90;;;;;;5096161;28;20435;-60
2021/12/06 04:49:16;;;;;;;3.53;2.45;;;13.10;99.90;;;;;;5062961;28;20051;-60
2021/12/06 04:51:48;;;;;;;5.05;1.98;;;13.10;99.90;;;;;;5079912;28;20044;-60
2021/12/06 04:54:17;;;;;;;3.13;2.03;;;13.00;99.90;;;;;;5096321;28;20477;-60
2021/12/06 04:56:50;;;;;;;3.58;1.80;;;13.00;99.90;;;;;;5062610;28;20503;-59
2021/12/06 04:59:30;;;;;;;4.07;1.42;;;13.00;99.90;;;;;;5079164;28;20074;-60
2021/12/06 05:02:04;;;;;;;3.80;1.40;;;13.00;99.90;;;;;;5079032;28;20040;-60
2021/12/06 05:04:36;;;;;;;4.65;1.60;;;13.00;99.90;;;;;;5113419;28;20044;-60
2021/12/06 05:07:16;;;;;;;1.65;1.20;;;12.90;99.90;;;;;;5079712;28;20032;-59
2021/12/06 05:09:45;;;;;;;3.28;1.35;;;13.00;99.90;;;;;;5095894;28;20035;-60
2021/12/06 05:12:19;;;;;;;2.78;1.40;;;12.90;99.90;;;;;;5095785;28;20032;-60
2021/12/06 05:14:47;;;;;;;2.30;1.38;;;12.90;99.90;;;;;;5095825;28;20054;-60
2021/12/06 05:17:16;;;;;;;3.20;2.03;;;12.90;99.90;;;;;;5079502;28;20047;-60
2021/12/06 05:19:44;;;;;;;6.80;1.92;;;12.90;99.90;;;;;;5078887;28;20048;-60
2021/12/06 05:22:12;;;;;;;12.02;7.55;;;12.90;99.90;;;;;;5062375;28;20055;-60
2021/12/06 05:24:40;;;;;;;11.77;7.40;;;12.90;99.90;;;;;;5095863;28;20075;-59
2021/12/06 05:27:09;;;;;;;7.07;4.68;;;12.90;99.90;;;;;;5078980;28;20070;-60
2021/12/06 05:29:44;;;;;;;7.25;3.13;;;12.90;99.90;;;;;;5095958;28;20035;-59
2021/12/06 05:32:12;;;;;;;3.47;1.90;;;12.90;99.90;;;;;;5095991;28;20039;-60
2021/12/06 05:34:43;;;;;;;2.38;1.20;;;12.80;99.90;;;;;;5113670;28;20046;-60
2021/12/06 05:37:14;;;;;;;4.32;1.27;;;12.60;99.90;;;;;;5079211;28;20067;-60
2021/12/06 05:39:41;;;;;;;2.60;1.10;;;12.60;99.90;;;;;;5078849;28;20086;-59
2021/12/06 05:42:12;;;;;;;2.83;1.42;;;12.60;99.90;;;;;;5095713;28;20038;-60
2021/12/06 05:44:41;;;;;;;4.38;1.40;;;12.60;99.90;;;;;;5078638;28;20046;-60
2021/12/06 05:47:09;;;;;;;3.20;1.75;;;12.70;99.90;;;;;;5095755;28;20047;-60
2021/12/06 05:49:37;;;;;;;4.82;2.13;;;12.70;99.90;;;;;;5078468;28;20043;-60
2021/12/06 05:52:05;;;;;;;4.40;2.60;;;12.70;99.90;;;;;;5095451;28;20115;-60
2021/12/06 05:54:34;;;;;;;4.45;2.35;;;12.70;99.90;;;;;;5095733;28;20043;-60
2021/12/06 05:57:02;;;;;;;2.60;1.48;;;12.80;99.90;;;;;;5062337;28;20046;-59
2021/12/06 05:59:30;;;;;;;2.10;1.20;;;12.80;99.90;;;;;;5095489;28;20067;-60
2021/12/06 06:01:58;;;;;;;2.80;1.30;;;12.80;99.90;;;;;;5095714;28;20047;-59
2021/12/06 06:04:26;;;;;;;3.15;1.70;;;12.80;99.90;;;;;;5095467;28;20035;-60
2021/12/06 06:06:54;;;;;;;4.47;1.95;;;12.90;99.90;;;;;;5061975;28;20046;-60
2021/12/06 06:09:22;;;;;;;5.95;2.05;;;12.90;99.90;;;;;;5095652;28;20032;-60
2021/12/06 06:11:50;;;;;;;4.30;2.35;;;12.90;99.90;;;;;;5095853;28;20415;-60
2021/12/06 06:14:18;;;;;;;6.05;4.25;;;12.80;99.90;;;;;;5095471;28;20043;-60
2021/12/06 06:16:51;;;;;;;7.55;2.30;;;12.80;99.90;;;;;;5095921;28;20054;-60
2021/12/06 06:19:22;;;;;;;3.67;2.38;;;12.80;99.90;;;;;;5098869;28;20031;-60
2021/12/06 06:21:52;;;;;;;6.90;4.13;;;12.80;99.90;;;;;;5081853;28;20358;-60
2021/12/06 06:24:20;;;;;;;4.20;2.80;;;12.80;99.90;;;;;;5098790;28;20477;-60
2021/12/06 06:26:47;;;;;;;8.32;2.55;;;12.80;99.90;;;;;;5098895;28;20370;-60
2021/12/06 06:29:15;;;;;;;4.43;2.35;;;12.70;99.90;;;;;;5098665;28;20046;-61
2021/12/06 06:31:43;;;;;;;3.90;1.75;;;12.70;99.90;;;;;;5082159;28;20035;-60
2021/12/06 06:34:11;;;;;;;2.72;1.70;;;12.70;99.90;;;;;;5098657;28;20055;-60
2021/12/06 06:36:39;;;;;;;3.75;1.75;;;12.70;99.90;;;;;;5098827;28;20035;-60
2021/12/06 06:39:08;;;;;;;3.95;2.72;;;12.70;99.90;;;;;;5116721;28;20047;-62
2021/12/06 06:41:36;;;;;;;3.60;2.15;;;12.80;99.90;;;;;;5081294;28;20135;-59
2021/12/06 06:44:05;;;;;;;5.15;2.80;;;12.80;99.90;;;;;;5098363;28;20389;-60
2021/12/06 06:46:33;;;;;;;4.32;3.10;;;12.80;99.90;;;;;;5081360;28;20138;-61
2021/12/06 06:49:01;;;;;;;5.65;3.22;;;12.90;99.90;;;;;;5098555;28;20119;-59
2021/12/06 06:51:29;;;;;;;2.95;1.92;;;12.90;99.90;;;;;;5098470;28;20039;-60
2021/12/06 06:53:57;;;;;;;3.05;1.90;;;12.90;99.90;;;;;;5116431;28;20082;-59
2021/12/06 06:56:25;;;;;;;5.13;1.90;;;12.90;99.90;;;;;;5098277;28;20042;-59
2021/12/06 06:58:53;;;;;;;4.13;1.90;;;13.00;99.90;;;;;;5098259;28;20039;-59
2021/12/06 07:01:21;;;;;;;8.02;3.75;;;13.10;99.90;;;;;;5064648;28;20043;-59
2021/12/06 07:03:53;;;;;;;6.90;3.15;;;13.20;99.90;;;;;;5081086;28;20040;-59
2021/12/06 07:06:26;;;;;;;3.63;2.40;;;13.30;99.90;;;;;;5098589;28;20131;-59
2021/12/06 07:08:56;;;;;;;4.15;2.15;;;13.30;99.90;;;;;;5080618;28;20193;-60
2021/12/06 07:11:26;;;;;;;3.53;2.30;;;13.20;99.90;;;;;;5097786;28;20470;-59
2021/12/06 07:13:54;;;;;;;5.90;2.22;;;13.20;99.90;;;;;;5079985;28;20071;-60
2021/12/06 07:16:22;;;;;;;4.78;2.60;;;13.20;99.90;;;;;;5097893;28;20088;-59
2021/12/06 07:18:50;;;;;;;5.05;2.78;;;13.50;99.90;;;;;;5098155;28;20419;-59
2021/12/06 07:21:18;;;;;;;6.68;1.90;;;14.20;99.90;;;;;;5097787;28;20422;-59
2021/12/06 07:23:46;;;;;;;3.55;1.75;;;14.60;99.90;;;;;;5097810;28;20038;-59
2021/12/06 07:26:16;;;;;;;2.20;1.38;;;14.70;99.90;;;;;;5098003;28;20031;-62
2021/12/06 07:28:45;;;;;;;3.38;1.40;;;14.60;99.90;;;;;;5097454;28;20126;-60
2021/12/06 07:31:14;;;;;;;3.05;1.77;;;14.50;99.90;;;;;;5097604;28;20035;-60
2021/12/06 07:33:44;;;;;;;3.40;2.22;;;14.40;99.90;;;;;;5097705;28;20058;-60
2021/12/06 07:36:16;;;;;;;5.60;3.40;;;14.20;99.90;;;;;;5097923;28;20040;-60
2021/12/06 07:38:44;;;;;;;4.07;1.73;;;14.10;99.90;;;;;;5063929;28;20040;-60
2021/12/06 07:41:14;;;;;;;3.75;1.70;;;13.90;99.90;;;;;;5096803;28;20073;-60
2021/12/06 07:43:43;;;;;;;3.60;2.40;;;13.80;99.90;;;;;;5097726;28;20457;-59
2021/12/06 07:46:11;;;;;;;3.95;3.00;;;13.70;99.90;;;;;;5080347;28;20040;-59
2021/12/06 07:48:39;;;;;;;5.18;2.90;;;13.70;99.90;;;;;;5064082;28;20044;-60
2021/12/06 07:51:07;;;;;;;3.63;2.15;;;13.70;99.90;;;;;;5080875;28;20101;-63
2021/12/06 07:53:38;;;;;;;7.50;2.45;;;13.70;99.90;;;;;;5097088;28;20032;-60
2021/12/06 07:56:06;;;;;;;5.50;2.35;;;13.70;99.90;;;;;;5097668;28;20134;-60
2021/12/06 07:58:34;;;;;;;4.72;2.00;;;13.70;99.90;;;;;;5097273;28;20034;-60
2021/12/06 08:01:03;;;;;;;3.05;1.77;;;13.70;99.90;;;;;;5115399;28;20389;-59
2021/12/06 08:03:31;;;;;;;4.50;1.80;;;13.60;99.90;;;;;;5096857;28;20062;-59
2021/12/06 08:06:00;;;;;;;3.60;1.58;;;13.60;99.90;;;;;;5063476;28;20043;-60
2021/12/06 08:08:30;;;;;;;6.25;2.35;;;13.60;99.90;;;;;;5080212;28;20051;-60
2021/12/06 08:11:06;;;;;;;6.25;3.40;;;13.60;99.90;;;;;;5097252;28;20040;-59
2021/12/06 08:13:35;;;;;;;5.17;3.10;;;13.50;99.90;;;;;;5096960;28;20051;-59
2021/12/06 08:16:09;;;;;;;8.50;3.95;;;13.50;99.90;;;;;;5114677;28;20097;-59
2021/12/06 08:18:37;;;;;;;5.40;2.92;;;13.50;99.90;;;;;;5054941;28;20097;-60
2021/12/06 08:21:06;;;;;;;6.60;3.80;;;13.50;99.90;;;;;;5062710;28;20378;-59
2021/12/06 08:23:34;;;;;;;5.55;2.78;;;13.50;99.90;;;;;;5053486;28;20060;-61
2021/12/06 08:26:09;;;;;;;4.07;2.63;;;13.60;99.90;;;;;;5072937;28;20044;-61
2021/12/06 08:28:38;;;;;;;5.18;2.95;;;13.70;99.90;;;;;;5081194;28;20032;-60
2021/12/06 08:31:07;;;;;;;4.95;3.42;;;13.70;99.90;;;;;;5046265;28;20044;-60
2021/12/06 08:33:36;;;;;;;7.90;4.90;;;13.80;99.90;;;;;;5085404;28;20032;-61
2021/12/06 08:36:07;;;;;;;7.35;4.40;;;13.90;99.90;;;;;;5082915;28;20048;-60
2021/12/06 08:38:36;;;;;;;8.43;4.90;;;13.90;99.90;;;;;;5058203;28;20032;-60
2021/12/06 08:41:08;;;;;;;7.47;3.85;;;14.00;99.90;;;;;;5098329;28;20059;-60
2021/12/06 08:43:37;;;;;;;5.47;4.10;;;14.00;99.90;;;;;;5088992;28;20077;-60
2021/12/06 08:46:16;;;;;;;9.13;3.75;;;14.00;99.90;;;;;;5075101;28;20040;-60
2021/12/06 08:48:44;;;;;;;4.18;2.53;;;14.00;99.90;;;;;;5120299;27;20032;-60
2021/12/06 08:51:28;;;;;;;4.53;2.75;;;14.00;99.90;;;;;;5115053;27;20027;-60
2021/12/06 08:53:58;;;;;;;4.60;2.53;;;14.00;99.90;;;;;;5114461;27;20092;-59
2021/12/06 08:56:27;;;;;;;4.80;2.70;;;14.00;99.90;;;;;;5104872;27;20063;-61
2021/12/06 08:58:57;;;;;;;4.90;2.55;;;14.00;99.90;;;;;;5065032;28;20048;-61
2021/12/06 09:01:27;;;;;;;5.10;2.40;;;14.00;99.90;;;;;;5087854;28;20032;-72
2021/12/06 09:04:12;;;;;;;7.50;2.77;;;14.10;99.90;;;;;;5112473;28;20100;-60
2021/12/06 09:06:44;;;;;;;6.63;3.17;;;14.20;99.90;;;;;;5099647;28;20040;-62
2021/12/06 09:09:13;;;;;;;10.63;3.40;;;14.30;99.90;;;;;;5103241;28;20515;-60
2021/12/06 09:11:44;;;;;;;3.63;2.58;;;14.30;99.90;;;;;;5097435;28;20029;-62
2021/12/06 09:14:13;;;;;;;9.23;2.72;;;14.40;99.90;;;;;;5078976;28;20031;-60
2021/12/06 09:16:41;;;;;;;8.13;3.70;;;14.40;99.90;;;;;;5098873;28;20035;-60
2021/12/06 09:19:09;;;;;;;5.07;2.47;;;14.50;99.90;;;;;;5095297;28;20036;-60
2021/12/06 09:21:39;;;;;;;3.40;2.20;;;14.60;99.90;;;;;;5116126;28;20039;-60
2021/12/06 09:24:09;;;;;;;3.65;1.80;;;14.60;99.90;;;;;;5095291;28;20488;-60
2021/12/06 09:26:37;;;;;;;6.68;2.22;;;14.80;99.90;;;;;;5099958;28;20474;-60
2021/12/06 09:29:06;;;;;;;5.88;2.72;;;14.90;99.90;;;;;;5100948;28;20042;-61
2021/12/06 09:31:35;;;;;;;5.68;2.63;;;15.00;99.90;;;;;;5061499;28;20534;-60
2021/12/06 09:34:03;;;;;;;2.80;1.77;;;15.10;99.90;;;;;;5096793;28;20039;-62
2021/12/06 09:36:33;;;;;;;5.85;2.42;;;15.30;99.90;;;;;;5083101;28;20036;-61
2021/12/06 09:39:02;;;;;;;6.53;1.83;;;15.40;99.90;;;;;;5094716;28;20496;-60
2021/12/06 09:41:30;;;;;;;3.67;1.90;;;15.50;99.90;;;;;;5097108;28;20423;-61
2021/12/06 09:44:02;;;;;;;4.57;1.63;;;15.50;99.90;;;;;;5103816;28;20035;-62
2021/12/06 09:46:35;;;;;;;3.72;2.38;;;15.40;99.90;;;;;;5115218;28;20043;-62
2021/12/06 09:49:09;;;;;;;3.08;1.95;;;15.40;99.90;;;;;;5105137;28;20047;-62
2021/12/06 09:51:40;;;;;;;2.30;1.88;;;15.40;99.90;;;;;;5072456;28;20233;-61
2021/12/06 09:54:09;;;;;;;5.88;1.90;;;15.50;99.90;;;;;;5099022;28;20054;-62
2021/12/06 09:56:41;;;;;;;3.88;1.83;;;15.50;99.90;;;;;;5096107;28;20055;-62
2021/12/06 09:59:13;;;;;;;3.70;1.85;;;15.60;99.90;;;;;;5099473;28;20466;-62
2021/12/06 10:01:45;;;;;;;5.35;2.22;;;15.60;99.90;;;;;;5075617;28;20130;-61
2021/12/06 10:04:15;;;;;;;2.70;1.58;;;15.60;99.90;;;;;;5101786;28;20154;-60
2021/12/06 10:06:43;;;;;;;5.57;2.10;;;15.60;99.90;;;;;;5102339;27;20359;-59
2021/12/06 10:09:12;;;;;;;3.22;1.70;;;15.50;99.90;;;;;;5081950;28;20397;-59
2021/12/06 10:11:40;;;;;;;3.40;1.67;;;15.50;99.90;;;;;;5100867;28;20119;-59
2021/12/06 10:14:09;;;;;;;3.70;2.28;;;15.40;99.90;;;;;;5083767;28;20375;-59
2021/12/06 10:16:37;;;;;;;3.53;1.92;;;15.30;99.90;;;;;;5101925;28;20559;-59
2021/12/06 10:19:05;;;;;;;3.42;2.08;;;15.20;99.90;;;;;;5087655;28;20444;-60
2021/12/06 10:21:35;;;;;;;4.28;2.22;;;15.20;99.90;;;;;;5068602;28;20062;-58
2021/12/06 10:24:12;;;;;;;8.57;2.88;;;15.10;99.90;;;;;;5078336;28;20044;-59
2021/12/06 10:26:40;;;;;;;4.28;2.20;;;15.00;99.90;;;;;;5078341;28;20029;-59
2021/12/06 10:29:20;;;;;;;3.60;2.00;;;15.00;99.90;;;;;;5061941;28;20051;-59
2021/12/06 10:31:50;;;;;;;3.28;2.42;;;15.00;99.90;;;;;;5099520;28;20047;-58
2021/12/06 10:34:24;;;;;;;4.97;2.10;;;14.90;99.90;;;;;;5084786;28;20048;-59
2021/12/06 10:36:53;;;;;;;3.85;1.58;;;14.80;99.90;;;;;;5094976;28;20040;-60
2021/12/06 10:39:23;;;;;;;2.78;1.75;;;14.70;99.90;;;;;;5077557;28;20044;-59
2021/12/06 10:41:53;;;;;;;2.65;1.67;;;14.70;99.90;;;;;;5096391;28;20032;-60
2021/12/06 10:44:21;;;;;;;4.35;1.60;;;14.60;99.90;;;;;;5076753;28;20036;-60
2021/12/06 10:46:51;;;;;;;2.33;1.70;;;14.60;99.90;;;;;;5059350;28;20071;-59
2021/12/06 10:49:27;;;;;;;6.50;2.85;;;14.60;99.90;;;;;;5076222;28;20042;-60
2021/12/06 10:51:54;;;;;;;6.20;2.17;;;14.50;99.90;;;;;;5059400;28;20028;-59
2021/12/06 10:54:36;;;;;;;2.92;2.15;;;14.50;99.90;;;;;;5093775;28;20036;-59
2021/12/06 10:57:07;;;;;;;3.22;1.88;;;14.50;99.90;;;;;;5093867;28;20035;-59
2021/12/06 10:59:39;;;;;;;3.75;1.98;;;14.50;99.90;;;;;;5076195;28;20040;-59
2021/12/06 11:02:12;;;;;;;5.80;1.90;;;14.40;99.90;;;;;;5074471;28;20070;-59
2021/12/06 11:04:41;;;;;;;2.65;1.58;;;14.40;99.90;;;;;;5075249;28;20032;-59
2021/12/06 11:07:10;;;;;;;3.95;1.50;;;14.40;99.90;;;;;;5093605;28;20078;-59
2021/12/06 11:09:41;;;;;;;2.97;1.60;;;14.30;99.90;;;;;;5075641;28;20059;-60
2021/12/06 11:12:17;;;;;;;3.75;1.80;;;14.30;99.90;;;;;;5077220;28;20039;-59
2021/12/06 11:14:48;;;;;;;2.50;1.50;;;14.30;99.90;;;;;;5095596;28;20050;-58
2021/12/06 11:17:19;;;;;;;4.35;1.63;;;14.30;99.90;;;;;;5060772;28;20347;-59
2021/12/06 11:19:51;;;;;;;2.15;1.58;;;14.30;99.90;;;;;;5095852;28;20381;-58
2021/12/06 11:22:22;;;;;;;4.38;2.30;;;14.30;99.90;;;;;;5095648;28;20032;-58
2021/12/06 11:24:52;;;;;;;4.40;2.53;;;14.30;99.90;;;;;;5060878;28;20067;-58
2021/12/06 11:27:22;;;;;;;5.97;2.40;;;14.30;99.90;;;;;;5095310;28;20039;-59
2021/12/06 11:30:02;;;;;;;4.47;2.90;;;14.40;99.90;;;;;;5060827;28;20032;-58
2021/12/06 11:32:40;;;;;;;4.10;2.70;;;14.40;99.90;;;;;;5095550;28;20036;-58
2021/12/06 11:35:11;;;;;;;3.80;2.95;;;14.40;99.90;;;;;;5060663;28;20143;-59
2021/12/06 11:37:47;;;;;;;4.03;2.58;;;14.40;99.90;;;;;;5077102;28;20048;-58
2021/12/06 11:40:19;;;;;;;5.40;3.13;;;14.40;99.90;;;;;;5094946;28;20032;-59
2021/12/06 11:43:02;;;;;;;4.20;2.35;;;14.40;99.90;;;;;;5077263;28;20482;-58
2021/12/06 11:45:34;;;;;;;3.13;1.70;;;14.40;99.90;;;;;;5076791;28;20035;-59
2021/12/06 11:48:11;;;;;;;3.53;2.50;;;14.40;99.90;;;;;;5060193;28;20608;-59
2021/12/06 11:50:44;;;;;;;4.38;2.15;;;14.30;99.90;;;;;;5076796;28;20040;-58
2021/12/06 11:53:13;;;;;;;5.35;3.17;;;14.30;99.90;;;;;;5094839;28;20040;-58
2021/12/06 11:55:50;;;;;;;6.38;3.90;;;14.30;99.90;;;;;;5042579;28;20134;-58
2021/12/06 11:58:37;;;;;;;8.70;4.50;;;14.30;99.90;;;;;;5094658;28;20042;-58
2021/12/06 12:01:26;;;;;;;9.97;5.10;;;14.30;99.90;;;;;;5076414;28;20039;-58
2021/12/06 12:04:00;;;;;;;7.82;3.00;;;14.20;99.90;;;;;;5094603;28;20744;-58
2021/12/06 12:06:34;;;;;;;4.22;2.78;;;14.20;99.90;;;;;;5094427;28;20520;-59
2021/12/06 12:09:07;;;;;;;4.38;2.50;;;14.20;99.90;;;;;;5076537;28;20036;-59
2021/12/06 12:12:08;;;;;;;4.38;3.00;;;14.20;99.90;;;;;;5076096;28;20048;-58
2021/12/06 12:14:41;;;;;;;4.38;2.58;;;14.20;99.90;;;;;;5059888;28;20478;-58
2021/12/06 12:17:16;;;;;;;4.97;3.30;;;14.20;99.90;;;;;;5059884;28;20096;-59
2021/12/06 12:19:45;;;;;;;5.55;3.90;;;14.20;99.90;;;;;;5043326;28;20047;-58
2021/12/06 12:22:14;;;;;;;8.48;5.25;;;14.20;99.90;;;;;;5093995;28;20044;-58
2021/12/06 12:24:46;;;;;;;7.18;4.75;;;14.20;99.90;;;;;;5094358;28;20067;-58
2021/12/06 12:27:34;;;;;;;8.25;4.07;;;14.20;99.90;;;;;;5076436;28;20043;-58
2021/12/06 12:30:04;;;;;;;6.07;3.75;;;14.20;99.90;;;;;;5094057;28;20032;-58
2021/12/06 12:32:35;;;;;;;5.78;3.03;;;14.20;99.90;;;;;;5075817;28;20355;-59
2021/12/06 12:35:07;;;;;;;4.45;3.03;;;14.20;99.90;;;;;;5043072;28;20051;-58
2021/12/06 12:37:38;;;;;;;5.95;3.70;;;14.20;99.90;;;;;;5059915;28;20482;-59
2021/12/06 12:40:17;;;;;;;4.75;2.85;;;14.10;99.90;;;;;;5076305;28;20466;-59
2021/12/06 12:42:59;;;;;;;6.50;3.15;;;14.00;99.90;;;;;;5093632;28;20043;-59
2021/12/06 12:45:48;;;;;;;6.63;3.90;;;14.10;99.90;;;;;;5075708;28;20054;-58
2021/12/06 12:48:22;;;;;;;4.60;2.85;;;14.20;99.90;;;;;;5059011;28;20083;-59
2021/12/06 12:51:09;;;;;;;5.50;3.03;;;14.20;99.90;;;;;;5094074;28;20481;-59
2021/12/06 12:54:25;;;;;;;5.70;3.70;;;14.40;99.90;;;;;;5097684;28;20031;-59
2021/12/06 12:57:02;;;;;;;4.68;4.07;;;14.50;99.90;;;;;;5053294;28;20131;-59
2021/12/06 12:59:43;;;;;;;9.13;5.13;;;14.60;99.90;;;;;;5074881;28;20036;-58
2021/12/06 13:02:28;;;;;;;6.03;4.70;;;14.70;99.90;;;;;;5094548;28;20069;-59
2021/12/06 13:04:59;;;;;;;4.37;2.77;;;14.70;99.90;;;;;;5100719;28;20513;-58
2021/12/06 13:07:54;;;;;;;3.97;2.45;;;14.70;99.90;;;;;;5090876;28;20044;-59
2021/12/06 13:10:24;;;;;;;4.32;2.40;;;14.70;99.90;;;;;;5058803;28;20044;-58
2021/12/06 13:13:12;;;;;;;3.92;2.50;;;14.60;99.90;;;;;;5059429;28;20069;-59
2021/12/06 13:15:58;;;;;;;3.78;2.58;;;14.60;99.90;;;;;;5092941;28;20192;-59
2021/12/06 13:18:53;;;;;;;4.20;2.00;;;14.50;99.90;;;;;;5092952;28;20093;-59
2021/12/06 13:21:45;;;;;;;3.58;2.03;;;14.50;99.90;;;;;;5075110;28;20086;-60
2021/12/06 13:24:12;;;;;;;3.75;2.20;;;14.40;99.90;;;;;;5075163;28;20051;-58